sensor_id;sensor_type;location;lat;lon;timestamp;P1;P2;P0
56688;PMS5003;42565;53.342;-1.534;2023-08-08T00:00:41;3;2;
56688;PMS5003;42565;53.342;-1.534;2023-08-08T00:03:08;2;2;
56688;PMS5003;42565;53.342;-1.534;2023-08-08T00:05:36;2;1;
56688;PMS5003;42565;53.342;-1.534;2023-08-08T00:08:04;1;1;
56688;PMS5003;42565;53.342;-1.534;2023-08-08T00:10:32;3;3;
56688;PMS5003;42565;53.342;-1.534;2023-08-08T00:12:59;2;2;
56688;PMS5003;42565;53.342;-1.534;2023-08-08T00:15:26;1;1;
56688;PMS5003;42565;53.342;-1.534;2023-08-08T00:17:54;2;2;
56688;PMS5003;42565;53.342;-1.534;2023-08-08T00:20:21;1;1;
56688;PMS5003;42565;53.342;-1.534;2023-08-08T00:22:48;2;2;
56688;PMS5003;42565;53.342;-1.534;2023-08-08T00:25:15;3;2;
56688;PMS5003;42565;53.342;-1.534;2023-08-08T00:27:42;2;2;
56688;PMS5003;42565;53.342;-1.534;2023-08-08T00:30:10;3;3;
56688;PMS5003;42565;53.342;-1.534;2023-08-08T00:32:38;1;1;
56688;PMS5003;42565;53.342;-1.534;2023-08-08T00:35:06;1;1;
56688;PMS5003;42565;53.342;-1.534;2023-08-08T00:37:34;1;1;
56688;PMS5003;42565;53.342;-1.534;2023-08-08T00:40:02;2;2;
56688;PMS5003;42565;53.342;-1.534;2023-08-08T00:42:30;2;2;
56688;PMS5003;42565;53.342;-1.534;2023-08-08T00:44:57;1;1;
56688;PMS5003;42565;53.342;-1.534;2023-08-08T00:47:23;2;2;
56688;PMS5003;42565;53.342;-1.534;2023-08-08T00:49:51;2;2;
56688;PMS5003;42565;53.342;-1.534;2023-08-08T00:52:18;2;2;
56688;PMS5003;42565;53.342;-1.534;2023-08-08T00:54:46;4;3;
56688;PMS5003;42565;53.342;-1.534;2023-08-08T00:57:14;2;2;
56688;PMS5003;42565;53.342;-1.534;2023-08-08T00:59:41;2;2;
56688;PMS5003;42565;53.342;-1.534;2023-08-08T01:02:08;2;1;
56688;PMS5003;42565;53.342;-1.534;2023-08-08T01:04:35;2;2;
56688;PMS5003;42565;53.342;-1.534;2023-08-08T01:07:05;2;2;
56688;PMS5003;42565;53.342;-1.534;2023-08-08T01:09:39;4;3;
56688;PMS5003;42565;53.342;-1.534;2023-08-08T01:12:11;3;3;
56688;PMS5003;42565;53.342;-1.534;2023-08-08T01:14:40;3;3;
56688;PMS5003;42565;53.342;-1.534;2023-08-08T01:17:10;1;1;
56688;PMS5003;42565;53.342;-1.534;2023-08-08T01:19:38;2;2;
56688;PMS5003;42565;53.342;-1.534;2023-08-08T01:22:07;1;1;
56688;PMS5003;42565;53.342;-1.534;2023-08-08T01:24:43;1;1;
56688;PMS5003;42565;53.342;-1.534;2023-08-08T01:27:10;1;1;
56688;PMS5003;42565;53.342;-1.534;2023-08-08T01:29:38;0;0;
56688;PMS5003;42565;53.342;-1.534;2023-08-08T01:32:05;1;1;
56688;PMS5003;42565;53.342;-1.534;2023-08-08T01:34:33;2;2;
56688;PMS5003;42565;53.342;-1.534;2023-08-08T01:37:02;1;1;
56688;PMS5003;42565;53.342;-1.534;2023-08-08T01:39:33;0;0;
56688;PMS5003;42565;53.342;-1.534;2023-08-08T01:42:01;1;1;
56688;PMS5003;42565;53.342;-1.534;2023-08-08T01:44:28;1;0;
56688;PMS5003;42565;53.342;-1.534;2023-08-08T01:46:57;1;1;
56688;PMS5003;42565;53.342;-1.534;2023-08-08T01:49:24;1;1;
56688;PMS5003;42565;53.342;-1.534;2023-08-08T01:51:52;1;1;
56688;PMS5003;42565;53.342;-1.534;2023-08-08T01:54:19;2;2;
56688;PMS5003;42565;53.342;-1.534;2023-08-08T01:56:46;1;1;
56688;PMS5003;42565;53.342;-1.534;2023-08-08T01:59:14;0;0;
56688;PMS5003;42565;53.342;-1.534;2023-08-08T02:01:41;1;1;
56688;PMS5003;42565;53.342;-1.534;2023-08-08T02:04:09;2;2;
56688;PMS5003;42565;53.342;-1.534;2023-08-08T02:06:36;0;0;
56688;PMS5003;42565;53.342;-1.534;2023-08-08T02:09:03;1;1;
56688;PMS5003;42565;53.342;-1.534;2023-08-08T02:11:31;0;0;
56688;PMS5003;42565;53.342;-1.534;2023-08-08T02:13:58;1;1;
56688;PMS5003;42565;53.342;-1.534;2023-08-08T02:16:26;1;0;
56688;PMS5003;42565;53.342;-1.534;2023-08-08T02:18:53;3;2;
56688;PMS5003;42565;53.342;-1.534;2023-08-08T02:21:21;3;3;
56688;PMS5003;42565;53.342;-1.534;2023-08-08T02:23:47;3;2;
56688;PMS5003;42565;53.342;-1.534;2023-08-08T02:26:15;1;1;
56688;PMS5003;42565;53.342;-1.534;2023-08-08T02:28:42;2;2;
56688;PMS5003;42565;53.342;-1.534;2023-08-08T02:31:09;1;1;
56688;PMS5003;42565;53.342;-1.534;2023-08-08T02:33:37;3;3;
56688;PMS5003;42565;53.342;-1.534;2023-08-08T02:36:04;3;3;
56688;PMS5003;42565;53.342;-1.534;2023-08-08T02:38:31;3;3;
56688;PMS5003;42565;53.342;-1.534;2023-08-08T02:40:58;3;3;
56688;PMS5003;42565;53.342;-1.534;2023-08-08T02:43:25;3;3;
56688;PMS5003;42565;53.342;-1.534;2023-08-08T02:45:53;3;3;
56688;PMS5003;42565;53.342;-1.534;2023-08-08T02:48:20;3;3;
56688;PMS5003;42565;53.342;-1.534;2023-08-08T02:50:47;2;2;
56688;PMS5003;42565;53.342;-1.534;2023-08-08T02:53:15;4;3;
56688;PMS5003;42565;53.342;-1.534;2023-08-08T02:55:42;3;3;
56688;PMS5003;42565;53.342;-1.534;2023-08-08T02:58:09;3;3;
56688;PMS5003;42565;53.342;-1.534;2023-08-08T03:00:36;3;3;
56688;PMS5003;42565;53.342;-1.534;2023-08-08T03:03:02;4;3;
56688;PMS5003;42565;53.342;-1.534;2023-08-08T03:05:31;3;3;
56688;PMS5003;42565;53.342;-1.534;2023-08-08T03:07:58;1;1;
56688;PMS5003;42565;53.342;-1.534;2023-08-08T03:10:26;3;3;
56688;PMS5003;42565;53.342;-1.534;2023-08-08T03:12:53;3;3;
56688;PMS5003;42565;53.342;-1.534;2023-08-08T03:15:21;3;3;
56688;PMS5003;42565;53.342;-1.534;2023-08-08T03:17:48;5;3;
56688;PMS5003;42565;53.342;-1.534;2023-08-08T03:20:16;3;3;
56688;PMS5003;42565;53.342;-1.534;2023-08-08T03:22:43;4;4;
56688;PMS5003;42565;53.342;-1.534;2023-08-08T03:25:10;3;3;
56688;PMS5003;42565;53.342;-1.534;2023-08-08T03:27:37;3;3;
56688;PMS5003;42565;53.342;-1.534;2023-08-08T03:30:04;3;3;
56688;PMS5003;42565;53.342;-1.534;2023-08-08T03:32:33;2;2;
56688;PMS5003;42565;53.342;-1.534;2023-08-08T03:35:00;4;3;
56688;PMS5003;42565;53.342;-1.534;2023-08-08T03:37:27;3;2;
56688;PMS5003;42565;53.342;-1.534;2023-08-08T03:39:54;3;3;
56688;PMS5003;42565;53.342;-1.534;2023-08-08T03:42:21;4;3;
56688;PMS5003;42565;53.342;-1.534;2023-08-08T03:44:49;3;2;
56688;PMS5003;42565;53.342;-1.534;2023-08-08T03:47:16;3;3;
56688;PMS5003;42565;53.342;-1.534;2023-08-08T03:49:44;3;3;
56688;PMS5003;42565;53.342;-1.534;2023-08-08T03:52:11;4;4;
56688;PMS5003;42565;53.342;-1.534;2023-08-08T03:54:39;2;2;
56688;PMS5003;42565;53.342;-1.534;2023-08-08T03:57:07;2;2;
56688;PMS5003;42565;53.342;-1.534;2023-08-08T03:59:33;4;3;
56688;PMS5003;42565;53.342;-1.534;2023-08-08T04:02:01;3;2;
56688;PMS5003;42565;53.342;-1.534;2023-08-08T04:04:28;3;3;
56688;PMS5003;42565;53.342;-1.534;2023-08-08T04:06:56;3;2;
56688;PMS5003;42565;53.342;-1.534;2023-08-08T04:09:24;3;3;
56688;PMS5003;42565;53.342;-1.534;2023-08-08T04:11:51;2;2;
56688;PMS5003;42565;53.342;-1.534;2023-08-08T04:14:19;3;3;
56688;PMS5003;42565;53.342;-1.534;2023-08-08T04:16:46;3;3;
56688;PMS5003;42565;53.342;-1.534;2023-08-08T04:19:13;3;3;
56688;PMS5003;42565;53.342;-1.534;2023-08-08T04:21:40;3;3;
56688;PMS5003;42565;53.342;-1.534;2023-08-08T04:24:06;3;3;
56688;PMS5003;42565;53.342;-1.534;2023-08-08T04:26:34;3;3;
56688;PMS5003;42565;53.342;-1.534;2023-08-08T04:29:01;4;4;
56688;PMS5003;42565;53.342;-1.534;2023-08-08T04:31:28;5;3;
56688;PMS5003;42565;53.342;-1.534;2023-08-08T04:33:55;3;3;
56688;PMS5003;42565;53.342;-1.534;2023-08-08T04:36:22;3;3;
56688;PMS5003;42565;53.342;-1.534;2023-08-08T04:38:50;5;4;
56688;PMS5003;42565;53.342;-1.534;2023-08-08T04:41:17;3;3;
56688;PMS5003;42565;53.342;-1.534;2023-08-08T04:43:43;3;3;
56688;PMS5003;42565;53.342;-1.534;2023-08-08T04:46:10;4;4;
56688;PMS5003;42565;53.342;-1.534;2023-08-08T04:48:38;4;3;
56688;PMS5003;42565;53.342;-1.534;2023-08-08T04:51:06;2;2;
56688;PMS5003;42565;53.342;-1.534;2023-08-08T04:53:33;2;2;
56688;PMS5003;42565;53.342;-1.534;2023-08-08T04:56:00;4;4;
56688;PMS5003;42565;53.342;-1.534;2023-08-08T04:58:27;3;3;
56688;PMS5003;42565;53.342;-1.534;2023-08-08T05:00:55;3;3;
56688;PMS5003;42565;53.342;-1.534;2023-08-08T05:03:22;3;3;
56688;PMS5003;42565;53.342;-1.534;2023-08-08T05:05:50;3;2;
56688;PMS5003;42565;53.342;-1.534;2023-08-08T05:08:17;3;3;
56688;PMS5003;42565;53.342;-1.534;2023-08-08T05:10:44;3;3;
56688;PMS5003;42565;53.342;-1.534;2023-08-08T05:13:12;4;4;
56688;PMS5003;42565;53.342;-1.534;2023-08-08T05:15:39;6;6;
56688;PMS5003;42565;53.342;-1.534;2023-08-08T05:18:06;6;5;
56688;PMS5003;42565;53.342;-1.534;2023-08-08T05:20:33;3;3;
56688;PMS5003;42565;53.342;-1.534;2023-08-08T05:23:00;5;5;
56688;PMS5003;42565;53.342;-1.534;2023-08-08T05:25:28;4;4;
56688;PMS5003;42565;53.342;-1.534;2023-08-08T05:27:55;4;4;
56688;PMS5003;42565;53.342;-1.534;2023-08-08T05:30:23;5;5;
56688;PMS5003;42565;53.342;-1.534;2023-08-08T05:32:50;7;6;
56688;PMS5003;42565;53.342;-1.534;2023-08-08T05:35:17;8;7;
56688;PMS5003;42565;53.342;-1.534;2023-08-08T05:37:45;6;6;
56688;PMS5003;42565;53.342;-1.534;2023-08-08T05:40:12;5;5;
56688;PMS5003;42565;53.342;-1.534;2023-08-08T05:42:40;6;6;
56688;PMS5003;42565;53.342;-1.534;2023-08-08T05:45:07;8;8;
56688;PMS5003;42565;53.342;-1.534;2023-08-08T05:47:35;8;8;
56688;PMS5003;42565;53.342;-1.534;2023-08-08T05:50:02;6;6;
56688;PMS5003;42565;53.342;-1.534;2023-08-08T05:52:30;8;7;
56688;PMS5003;42565;53.342;-1.534;2023-08-08T05:54:58;8;7;
56688;PMS5003;42565;53.342;-1.534;2023-08-08T05:57:25;9;8;
56688;PMS5003;42565;53.342;-1.534;2023-08-08T05:59:52;8;8;
56688;PMS5003;42565;53.342;-1.534;2023-08-08T06:02:20;8;8;
56688;PMS5003;42565;53.342;-1.534;2023-08-08T06:04:48;8;7;
56688;PMS5003;42565;53.342;-1.534;2023-08-08T06:07:14;7;7;
56688;PMS5003;42565;53.342;-1.534;2023-08-08T06:09:41;7;7;
56688;PMS5003;42565;53.342;-1.534;2023-08-08T06:12:08;9;8;
56688;PMS5003;42565;53.342;-1.534;2023-08-08T06:14:35;7;7;
56688;PMS5003;42565;53.342;-1.534;2023-08-08T06:17:02;10;9;
56688;PMS5003;42565;53.342;-1.534;2023-08-08T06:19:30;10;10;
56688;PMS5003;42565;53.342;-1.534;2023-08-08T06:21:57;9;8;
56688;PMS5003;42565;53.342;-1.534;2023-08-08T06:24:25;6;6;
56688;PMS5003;42565;53.342;-1.534;2023-08-08T06:26:52;7;6;
56688;PMS5003;42565;53.342;-1.534;2023-08-08T06:29:20;5;5;
56688;PMS5003;42565;53.342;-1.534;2023-08-08T06:31:47;6;6;
56688;PMS5003;42565;53.342;-1.534;2023-08-08T06:34:15;7;6;
56688;PMS5003;42565;53.342;-1.534;2023-08-08T06:36:42;6;6;
56688;PMS5003;42565;53.342;-1.534;2023-08-08T06:39:10;7;7;
56688;PMS5003;42565;53.342;-1.534;2023-08-08T06:41:37;7;7;
56688;PMS5003;42565;53.342;-1.534;2023-08-08T06:44:06;7;7;
56688;PMS5003;42565;53.342;-1.534;2023-08-08T06:46:34;8;7;
56688;PMS5003;42565;53.342;-1.534;2023-08-08T06:49:01;8;7;
56688;PMS5003;42565;53.342;-1.534;2023-08-08T06:51:28;9;9;
56688;PMS5003;42565;53.342;-1.534;2023-08-08T06:53:56;11;10;
56688;PMS5003;42565;53.342;-1.534;2023-08-08T06:56:24;9;9;
56688;PMS5003;42565;53.342;-1.534;2023-08-08T06:58:51;10;9;
56688;PMS5003;42565;53.342;-1.534;2023-08-08T07:01:19;7;7;
56688;PMS5003;42565;53.342;-1.534;2023-08-08T07:03:46;12;9;
56688;PMS5003;42565;53.342;-1.534;2023-08-08T07:06:13;9;8;
56688;PMS5003;42565;53.342;-1.534;2023-08-08T07:08:41;10;10;
56688;PMS5003;42565;53.342;-1.534;2023-08-08T07:11:08;8;8;
56688;PMS5003;42565;53.342;-1.534;2023-08-08T07:13:36;9;9;
56688;PMS5003;42565;53.342;-1.534;2023-08-08T07:16:03;8;8;
56688;PMS5003;42565;53.342;-1.534;2023-08-08T07:18:30;8;8;
56688;PMS5003;42565;53.342;-1.534;2023-08-08T07:20:57;12;11;
56688;PMS5003;42565;53.342;-1.534;2023-08-08T07:23:24;11;9;
56688;PMS5003;42565;53.342;-1.534;2023-08-08T07:25:51;9;9;
56688;PMS5003;42565;53.342;-1.534;2023-08-08T07:28:18;9;9;
56688;PMS5003;42565;53.342;-1.534;2023-08-08T07:30:45;11;11;
56688;PMS5003;42565;53.342;-1.534;2023-08-08T07:33:12;11;10;
56688;PMS5003;42565;53.342;-1.534;2023-08-08T07:35:40;9;9;
56688;PMS5003;42565;53.342;-1.534;2023-08-08T07:38:07;9;8;
56688;PMS5003;42565;53.342;-1.534;2023-08-08T07:40:33;9;8;
56688;PMS5003;42565;53.342;-1.534;2023-08-08T07:43:02;10;10;
56688;PMS5003;42565;53.342;-1.534;2023-08-08T07:45:29;9;9;
56688;PMS5003;42565;53.342;-1.534;2023-08-08T07:47:56;11;10;
56688;PMS5003;42565;53.342;-1.534;2023-08-08T07:50:23;11;10;
56688;PMS5003;42565;53.342;-1.534;2023-08-08T07:52:50;10;10;
56688;PMS5003;42565;53.342;-1.534;2023-08-08T07:55:18;10;10;
56688;PMS5003;42565;53.342;-1.534;2023-08-08T07:57:45;8;8;
56688;PMS5003;42565;53.342;-1.534;2023-08-08T08:00:13;10;9;
56688;PMS5003;42565;53.342;-1.534;2023-08-08T08:02:42;15;13;
56688;PMS5003;42565;53.342;-1.534;2023-08-08T08:05:11;12;12;
56688;PMS5003;42565;53.342;-1.534;2023-08-08T08:07:39;15;13;
56688;PMS5003;42565;53.342;-1.534;2023-08-08T08:10:07;12;10;
56688;PMS5003;42565;53.342;-1.534;2023-08-08T08:12:36;10;10;
56688;PMS5003;42565;53.342;-1.534;2023-08-08T08:15:03;9;9;
56688;PMS5003;42565;53.342;-1.534;2023-08-08T08:17:32;10;10;
56688;PMS5003;42565;53.342;-1.534;2023-08-08T08:19:59;9;9;
56688;PMS5003;42565;53.342;-1.534;2023-08-08T08:22:27;7;7;
56688;PMS5003;42565;53.342;-1.534;2023-08-08T08:24:54;8;8;
56688;PMS5003;42565;53.342;-1.534;2023-08-08T08:27:22;8;8;
56688;PMS5003;42565;53.342;-1.534;2023-08-08T08:29:49;9;9;
56688;PMS5003;42565;53.342;-1.534;2023-08-08T08:32:17;8;8;
56688;PMS5003;42565;53.342;-1.534;2023-08-08T08:34:44;9;9;
56688;PMS5003;42565;53.342;-1.534;2023-08-08T08:37:11;10;8;
56688;PMS5003;42565;53.342;-1.534;2023-08-08T08:39:37;8;8;
56688;PMS5003;42565;53.342;-1.534;2023-08-08T08:42:05;8;8;
56688;PMS5003;42565;53.342;-1.534;2023-08-08T08:44:35;9;7;
56688;PMS5003;42565;53.342;-1.534;2023-08-08T08:47:03;8;7;
56688;PMS5003;42565;53.342;-1.534;2023-08-08T08:49:34;6;6;
56688;PMS5003;42565;53.342;-1.534;2023-08-08T08:52:04;8;7;
56688;PMS5003;42565;53.342;-1.534;2023-08-08T08:54:31;8;8;
56688;PMS5003;42565;53.342;-1.534;2023-08-08T08:56:59;6;6;
56688;PMS5003;42565;53.342;-1.534;2023-08-08T08:59:26;7;6;
56688;PMS5003;42565;53.342;-1.534;2023-08-08T09:01:54;7;7;
56688;PMS5003;42565;53.342;-1.534;2023-08-08T09:04:23;7;6;
56688;PMS5003;42565;53.342;-1.534;2023-08-08T09:06:50;7;7;
56688;PMS5003;42565;53.342;-1.534;2023-08-08T09:09:18;7;7;
56688;PMS5003;42565;53.342;-1.534;2023-08-08T09:11:46;8;8;
56688;PMS5003;42565;53.342;-1.534;2023-08-08T09:14:16;7;7;
56688;PMS5003;42565;53.342;-1.534;2023-08-08T09:16:45;7;7;
56688;PMS5003;42565;53.342;-1.534;2023-08-08T09:19:13;6;6;
56688;PMS5003;42565;53.342;-1.534;2023-08-08T09:21:40;6;6;
56688;PMS5003;42565;53.342;-1.534;2023-08-08T09:24:08;19;14;
56688;PMS5003;42565;53.342;-1.534;2023-08-08T09:26:35;6;6;
56688;PMS5003;42565;53.342;-1.534;2023-08-08T09:29:03;6;5;
56688;PMS5003;42565;53.342;-1.534;2023-08-08T09:31:31;5;5;
56688;PMS5003;42565;53.342;-1.534;2023-08-08T09:34:02;4;4;
56688;PMS5003;42565;53.342;-1.534;2023-08-08T09:36:30;5;5;
56688;PMS5003;42565;53.342;-1.534;2023-08-08T09:38:58;6;6;
56688;PMS5003;42565;53.342;-1.534;2023-08-08T09:41:25;6;6;
56688;PMS5003;42565;53.342;-1.534;2023-08-08T09:43:53;5;4;
56688;PMS5003;42565;53.342;-1.534;2023-08-08T09:46:21;4;4;
56688;PMS5003;42565;53.342;-1.534;2023-08-08T09:48:54;4;4;
56688;PMS5003;42565;53.342;-1.534;2023-08-08T09:51:22;4;3;
56688;PMS5003;42565;53.342;-1.534;2023-08-08T09:53:50;3;3;
56688;PMS5003;42565;53.342;-1.534;2023-08-08T09:56:17;4;4;
56688;PMS5003;42565;53.342;-1.534;2023-08-08T09:58:45;4;4;
56688;PMS5003;42565;53.342;-1.534;2023-08-08T10:01:14;3;3;
56688;PMS5003;42565;53.342;-1.534;2023-08-08T10:03:41;5;4;
56688;PMS5003;42565;53.342;-1.534;2023-08-08T10:06:08;5;5;
56688;PMS5003;42565;53.342;-1.534;2023-08-08T10:08:36;4;4;
56688;PMS5003;42565;53.342;-1.534;2023-08-08T10:11:03;6;6;
56688;PMS5003;42565;53.342;-1.534;2023-08-08T10:13:33;5;5;
56688;PMS5003;42565;53.342;-1.534;2023-08-08T10:16:04;5;5;
56688;PMS5003;42565;53.342;-1.534;2023-08-08T10:18:34;5;4;
56688;PMS5003;42565;53.342;-1.534;2023-08-08T10:21:04;5;5;
56688;PMS5003;42565;53.342;-1.534;2023-08-08T10:23:35;3;3;
56688;PMS5003;42565;53.342;-1.534;2023-08-08T10:26:03;4;4;
56688;PMS5003;42565;53.342;-1.534;2023-08-08T10:28:32;3;3;
56688;PMS5003;42565;53.342;-1.534;2023-08-08T10:31:00;5;5;
56688;PMS5003;42565;53.342;-1.534;2023-08-08T10:33:28;4;4;
56688;PMS5003;42565;53.342;-1.534;2023-08-08T10:36:06;4;4;
56688;PMS5003;42565;53.342;-1.534;2023-08-08T10:38:42;3;3;
56688;PMS5003;42565;53.342;-1.534;2023-08-08T10:41:11;4;4;
56688;PMS5003;42565;53.342;-1.534;2023-08-08T10:43:46;5;4;
56688;PMS5003;42565;53.342;-1.534;2023-08-08T10:46:21;4;4;
56688;PMS5003;42565;53.342;-1.534;2023-08-08T10:48:50;5;5;
56688;PMS5003;42565;53.342;-1.534;2023-08-08T10:51:18;3;3;
56688;PMS5003;42565;53.342;-1.534;2023-08-08T10:53:45;3;3;
56688;PMS5003;42565;53.342;-1.534;2023-08-08T10:56:13;2;2;
56688;PMS5003;42565;53.342;-1.534;2023-08-08T10:58:41;4;4;
56688;PMS5003;42565;53.342;-1.534;2023-08-08T11:01:13;4;4;
56688;PMS5003;42565;53.342;-1.534;2023-08-08T11:03:41;5;5;
56688;PMS5003;42565;53.342;-1.534;2023-08-08T11:06:09;3;3;
56688;PMS5003;42565;53.342;-1.534;2023-08-08T11:08:37;5;4;
56688;PMS5003;42565;53.342;-1.534;2023-08-08T11:11:04;6;5;
56688;PMS5003;42565;53.342;-1.534;2023-08-08T11:13:32;4;4;
56688;PMS5003;42565;53.342;-1.534;2023-08-08T11:16:00;3;2;
56688;PMS5003;42565;53.342;-1.534;2023-08-08T11:18:27;3;3;
56688;PMS5003;42565;53.342;-1.534;2023-08-08T11:20:55;5;5;
56688;PMS5003;42565;53.342;-1.534;2023-08-08T11:23:22;5;5;
56688;PMS5003;42565;53.342;-1.534;2023-08-08T11:25:50;5;5;
56688;PMS5003;42565;53.342;-1.534;2023-08-08T11:28:17;5;5;
56688;PMS5003;42565;53.342;-1.534;2023-08-08T11:30:45;4;4;
56688;PMS5003;42565;53.342;-1.534;2023-08-08T11:33:13;5;5;
56688;PMS5003;42565;53.342;-1.534;2023-08-08T11:35:43;5;5;
56688;PMS5003;42565;53.342;-1.534;2023-08-08T11:38:11;7;6;
56688;PMS5003;42565;53.342;-1.534;2023-08-08T11:40:39;6;6;
56688;PMS5003;42565;53.342;-1.534;2023-08-08T11:43:07;5;4;
56688;PMS5003;42565;53.342;-1.534;2023-08-08T11:45:34;4;4;
56688;PMS5003;42565;53.342;-1.534;2023-08-08T11:48:01;5;5;
56688;PMS5003;42565;53.342;-1.534;2023-08-08T11:50:29;4;4;
56688;PMS5003;42565;53.342;-1.534;2023-08-08T11:52:57;4;4;
56688;PMS5003;42565;53.342;-1.534;2023-08-08T11:55:28;5;5;
56688;PMS5003;42565;53.342;-1.534;2023-08-08T11:57:56;3;3;
56688;PMS5003;42565;53.342;-1.534;2023-08-08T12:00:26;6;5;
56688;PMS5003;42565;53.342;-1.534;2023-08-08T12:02:54;5;5;
56688;PMS5003;42565;53.342;-1.534;2023-08-08T12:05:21;4;4;
56688;PMS5003;42565;53.342;-1.534;2023-08-08T12:07:49;6;5;
56688;PMS5003;42565;53.342;-1.534;2023-08-08T12:10:18;4;4;
56688;PMS5003;42565;53.342;-1.534;2023-08-08T12:12:47;7;6;
56688;PMS5003;42565;53.342;-1.534;2023-08-08T12:15:19;6;5;
56688;PMS5003;42565;53.342;-1.534;2023-08-08T12:17:47;6;5;
56688;PMS5003;42565;53.342;-1.534;2023-08-08T12:20:14;6;6;
56688;PMS5003;42565;53.342;-1.534;2023-08-08T12:22:42;6;6;
56688;PMS5003;42565;53.342;-1.534;2023-08-08T12:25:10;7;7;
56688;PMS5003;42565;53.342;-1.534;2023-08-08T12:27:37;6;6;
56688;PMS5003;42565;53.342;-1.534;2023-08-08T12:30:06;6;6;
56688;PMS5003;42565;53.342;-1.534;2023-08-08T12:32:34;8;7;
56688;PMS5003;42565;53.342;-1.534;2023-08-08T12:35:02;8;8;
56688;PMS5003;42565;53.342;-1.534;2023-08-08T12:37:30;7;7;
56688;PMS5003;42565;53.342;-1.534;2023-08-08T12:39:57;9;9;
56688;PMS5003;42565;53.342;-1.534;2023-08-08T12:42:24;10;10;
56688;PMS5003;42565;53.342;-1.534;2023-08-08T12:44:52;8;7;
56688;PMS5003;42565;53.342;-1.534;2023-08-08T12:47:20;6;5;
56688;PMS5003;42565;53.342;-1.534;2023-08-08T12:49:48;6;6;
56688;PMS5003;42565;53.342;-1.534;2023-08-08T12:52:15;6;6;
56688;PMS5003;42565;53.342;-1.534;2023-08-08T12:54:43;8;8;
56688;PMS5003;42565;53.342;-1.534;2023-08-08T12:57:10;6;6;
56688;PMS5003;42565;53.342;-1.534;2023-08-08T12:59:38;5;5;
56688;PMS5003;42565;53.342;-1.534;2023-08-08T13:02:10;6;6;
56688;PMS5003;42565;53.342;-1.534;2023-08-08T13:04:38;5;5;
56688;PMS5003;42565;53.342;-1.534;2023-08-08T13:07:11;6;6;
56688;PMS5003;42565;53.342;-1.534;2023-08-08T13:09:38;5;5;
56688;PMS5003;42565;53.342;-1.534;2023-08-08T13:12:05;6;6;
56688;PMS5003;42565;53.342;-1.534;2023-08-08T13:14:33;5;5;
56688;PMS5003;42565;53.342;-1.534;2023-08-08T13:17:00;5;5;
56688;PMS5003;42565;53.342;-1.534;2023-08-08T13:19:27;5;5;
56688;PMS5003;42565;53.342;-1.534;2023-08-08T13:21:55;5;5;
56688;PMS5003;42565;53.342;-1.534;2023-08-08T13:24:23;7;5;
56688;PMS5003;42565;53.342;-1.534;2023-08-08T13:26:51;5;5;
56688;PMS5003;42565;53.342;-1.534;2023-08-08T13:29:18;3;3;
56688;PMS5003;42565;53.342;-1.534;2023-08-08T13:31:46;4;4;
56688;PMS5003;42565;53.342;-1.534;2023-08-08T13:34:13;4;4;
56688;PMS5003;42565;53.342;-1.534;2023-08-08T13:36:41;6;5;
56688;PMS5003;42565;53.342;-1.534;2023-08-08T13:39:08;3;3;
56688;PMS5003;42565;53.342;-1.534;2023-08-08T13:41:36;5;4;
56688;PMS5003;42565;53.342;-1.534;2023-08-08T13:44:03;3;3;
56688;PMS5003;42565;53.342;-1.534;2023-08-08T13:46:32;3;3;
56688;PMS5003;42565;53.342;-1.534;2023-08-08T13:48:59;3;3;
56688;PMS5003;42565;53.342;-1.534;2023-08-08T13:51:27;2;2;
56688;PMS5003;42565;53.342;-1.534;2023-08-08T13:53:54;4;3;
56688;PMS5003;42565;53.342;-1.534;2023-08-08T13:56:21;3;3;
56688;PMS5003;42565;53.342;-1.534;2023-08-08T13:58:49;2;2;
56688;PMS5003;42565;53.342;-1.534;2023-08-08T14:01:17;3;3;
56688;PMS5003;42565;53.342;-1.534;2023-08-08T14:03:44;2;2;
56688;PMS5003;42565;53.342;-1.534;2023-08-08T14:06:11;2;2;
56688;PMS5003;42565;53.342;-1.534;2023-08-08T14:08:38;2;2;
56688;PMS5003;42565;53.342;-1.534;2023-08-08T14:11:05;2;2;
56688;PMS5003;42565;53.342;-1.534;2023-08-08T14:13:32;2;2;
56688;PMS5003;42565;53.342;-1.534;2023-08-08T14:15:59;2;2;
56688;PMS5003;42565;53.342;-1.534;2023-08-08T14:18:26;1;1;
56688;PMS5003;42565;53.342;-1.534;2023-08-08T14:20:54;2;2;
56688;PMS5003;42565;53.342;-1.534;2023-08-08T14:23:21;1;1;
56688;PMS5003;42565;53.342;-1.534;2023-08-08T14:25:48;1;1;
56688;PMS5003;42565;53.342;-1.534;2023-08-08T14:28:15;1;1;
56688;PMS5003;42565;53.342;-1.534;2023-08-08T14:30:43;1;1;
56688;PMS5003;42565;53.342;-1.534;2023-08-08T14:33:12;1;1;
56688;PMS5003;42565;53.342;-1.534;2023-08-08T14:35:39;1;1;
56688;PMS5003;42565;53.342;-1.534;2023-08-08T14:38:06;1;1;
56688;PMS5003;42565;53.342;-1.534;2023-08-08T14:40:34;2;2;
56688;PMS5003;42565;53.342;-1.534;2023-08-08T14:43:01;1;1;
56688;PMS5003;42565;53.342;-1.534;2023-08-08T14:45:28;1;1;
56688;PMS5003;42565;53.342;-1.534;2023-08-08T14:47:56;2;2;
56688;PMS5003;42565;53.342;-1.534;2023-08-08T14:50:23;1;1;
56688;PMS5003;42565;53.342;-1.534;2023-08-08T14:52:50;1;1;
56688;PMS5003;42565;53.342;-1.534;2023-08-08T14:55:18;1;1;
56688;PMS5003;42565;53.342;-1.534;2023-08-08T14:57:45;2;2;
56688;PMS5003;42565;53.342;-1.534;2023-08-08T15:00:13;2;2;
56688;PMS5003;42565;53.342;-1.534;2023-08-08T15:02:40;2;2;
56688;PMS5003;42565;53.342;-1.534;2023-08-08T15:05:08;2;2;
56688;PMS5003;42565;53.342;-1.534;2023-08-08T15:07:34;2;2;
56688;PMS5003;42565;53.342;-1.534;2023-08-08T15:10:01;1;1;
56688;PMS5003;42565;53.342;-1.534;2023-08-08T15:12:29;2;2;
56688;PMS5003;42565;53.342;-1.534;2023-08-08T15:14:55;1;1;
56688;PMS5003;42565;53.342;-1.534;2023-08-08T15:17:23;1;1;
56688;PMS5003;42565;53.342;-1.534;2023-08-08T15:19:50;1;1;
56688;PMS5003;42565;53.342;-1.534;2023-08-08T15:22:18;1;1;
56688;PMS5003;42565;53.342;-1.534;2023-08-08T15:24:45;0;0;
56688;PMS5003;42565;53.342;-1.534;2023-08-08T15:27:13;1;1;
56688;PMS5003;42565;53.342;-1.534;2023-08-08T15:29:40;1;1;
56688;PMS5003;42565;53.342;-1.534;2023-08-08T15:32:08;1;1;
56688;PMS5003;42565;53.342;-1.534;2023-08-08T15:34:35;0;0;
56688;PMS5003;42565;53.342;-1.534;2023-08-08T15:37:03;0;0;
56688;PMS5003;42565;53.342;-1.534;2023-08-08T15:39:30;0;0;
56688;PMS5003;42565;53.342;-1.534;2023-08-08T15:41:57;1;1;
56688;PMS5003;42565;53.342;-1.534;2023-08-08T15:44:24;1;1;
56688;PMS5003;42565;53.342;-1.534;2023-08-08T15:46:52;0;0;
56688;PMS5003;42565;53.342;-1.534;2023-08-08T15:49:19;1;1;
56688;PMS5003;42565;53.342;-1.534;2023-08-08T15:51:47;1;1;
56688;PMS5003;42565;53.342;-1.534;2023-08-08T15:54:14;0;0;
56688;PMS5003;42565;53.342;-1.534;2023-08-08T15:56:42;0;0;
56688;PMS5003;42565;53.342;-1.534;2023-08-08T15:59:09;0;0;
56688;PMS5003;42565;53.342;-1.534;2023-08-08T16:01:37;0;0;
56688;PMS5003;42565;53.342;-1.534;2023-08-08T16:04:04;1;1;
56688;PMS5003;42565;53.342;-1.534;2023-08-08T16:06:32;0;0;
56688;PMS5003;42565;53.342;-1.534;2023-08-08T16:08:59;1;0;
56688;PMS5003;42565;53.342;-1.534;2023-08-08T16:11:27;1;1;
56688;PMS5003;42565;53.342;-1.534;2023-08-08T16:13:54;1;1;
56688;PMS5003;42565;53.342;-1.534;2023-08-08T16:16:22;1;1;
56688;PMS5003;42565;53.342;-1.534;2023-08-08T16:18:49;0;0;
56688;PMS5003;42565;53.342;-1.534;2023-08-08T16:21:17;0;0;
56688;PMS5003;42565;53.342;-1.534;2023-08-08T16:23:44;0;0;
56688;PMS5003;42565;53.342;-1.534;2023-08-08T16:26:12;0;0;
56688;PMS5003;42565;53.342;-1.534;2023-08-08T16:28:39;1;1;
56688;PMS5003;42565;53.342;-1.534;2023-08-08T16:31:07;1;1;
56688;PMS5003;42565;53.342;-1.534;2023-08-08T16:33:34;1;1;
56688;PMS5003;42565;53.342;-1.534;2023-08-08T16:36:01;1;1;